sensor_id;sensor_type;location;lat;lon;timestamp;pressure;altitude;pressure_sealevel;temperature;humidity
73171;BME280;61381;50.118;19.962;2023-05-02T00:02:33;98471.13;;;5.88;100.00
73171;BME280;61381;50.118;19.962;2023-05-02T00:07:36;98473.94;;;6.09;100.00
73171;BME280;61381;50.118;19.962;2023-05-02T00:12:37;98467.69;;;6.25;100.00
73171;BME280;61381;50.118;19.962;2023-05-02T00:17:39;98461.97;;;6.49;100.00
73171;BME280;61381;50.118;19.962;2023-05-02T00:22:41;98472.81;;;6.37;100.00
73171;BME280;61381;50.118;19.962;2023-05-02T00:27:43;98466.53;;;6.11;100.00
73171;BME280;61381;50.118;19.962;2023-05-02T00:32:44;98460.19;;;6.17;100.00
73171;BME280;61381;50.118;19.962;2023-05-02T00:37:46;98470.84;;;6.22;100.00
73171;BME280;61381;50.118;19.962;2023-05-02T00:42:47;98472.88;;;6.05;100.00
73171;BME280;61381;50.118;19.962;2023-05-02T00:47:48;98470.16;;;6.00;100.00
73171;BME280;61381;50.118;19.962;2023-05-02T00:52:54;98463.66;;;5.85;100.00
73171;BME280;61381;50.118;19.962;2023-05-02T00:57:55;98470.66;;;5.97;100.00
73171;BME280;61381;50.118;19.962;2023-05-02T01:03:04;98468.00;;;5.97;100.00
73171;BME280;61381;50.118;19.962;2023-05-02T01:08:16;98463.66;;;6.23;100.00
73171;BME280;61381;50.118;19.962;2023-05-02T01:13:21;98465.16;;;6.03;100.00
73171;BME280;61381;50.118;19.962;2023-05-02T01:18:23;98469.06;;;5.96;100.00
73171;BME280;61381;50.118;19.962;2023-05-02T01:23:31;98469.78;;;5.91;100.00
73171;BME280;61381;50.118;19.962;2023-05-02T01:28:48;98470.53;;;5.86;100.00
73171;BME280;61381;50.118;19.962;2023-05-02T01:33:51;98473.41;;;5.75;100.00
73171;BME280;61381;50.118;19.962;2023-05-02T01:38:54;98462.81;;;5.85;100.00
73171;BME280;61381;50.118;19.962;2023-05-02T01:43:58;98465.22;;;5.86;100.00
73171;BME280;61381;50.118;19.962;2023-05-02T01:49:05;98470.25;;;5.83;100.00
73171;BME280;61381;50.118;19.962;2023-05-02T01:54:07;98472.22;;;5.93;100.00
73171;BME280;61381;50.118;19.962;2023-05-02T01:59:13;98476.59;;;6.04;100.00
73171;BME280;61381;50.118;19.962;2023-05-02T02:04:16;98474.53;;;5.84;100.00
73171;BME280;61381;50.118;19.962;2023-05-02T02:09:19;98471.88;;;5.84;100.00
73171;BME280;61381;50.118;19.962;2023-05-02T02:14:25;98466.47;;;5.74;100.00
73171;BME280;61381;50.118;19.962;2023-05-02T02:19:28;98476.75;;;5.65;100.00
73171;BME280;61381;50.118;19.962;2023-05-02T02:24:31;98476.34;;;5.51;100.00
73171;BME280;61381;50.118;19.962;2023-05-02T02:29:36;98476.03;;;5.42;100.00
73171;BME280;61381;50.118;19.962;2023-05-02T02:34:38;98478.03;;;5.30;100.00
73171;BME280;61381;50.118;19.962;2023-05-02T02:39:46;98493.22;;;5.12;100.00
73171;BME280;61381;50.118;19.962;2023-05-02T02:44:55;98487.03;;;5.07;100.00
73171;BME280;61381;50.118;19.962;2023-05-02T02:50:08;98488.78;;;5.18;100.00
73171;BME280;61381;50.118;19.962;2023-05-02T02:55:11;98498.09;;;5.21;100.00
73171;BME280;61381;50.118;19.962;2023-05-02T03:00:19;98489.19;;;5.10;100.00
73171;BME280;61381;50.118;19.962;2023-05-02T03:05:21;98475.09;;;5.04;100.00
73171;BME280;61381;50.118;19.962;2023-05-02T03:10:22;98489.28;;;5.15;100.00
73171;BME280;61381;50.118;19.962;2023-05-02T03:20:50;98513.34;;;5.08;100.00
73171;BME280;61381;50.118;19.962;2023-05-02T03:25:51;98506.56;;;5.17;100.00
73171;BME280;61381;50.118;19.962;2023-05-02T03:30:53;98501.75;;;5.14;100.00
73171;BME280;61381;50.118;19.962;2023-05-02T03:35:54;98510.88;;;5.24;100.00
73171;BME280;61381;50.118;19.962;2023-05-02T03:40:56;98506.63;;;5.23;100.00
73171;BME280;61381;50.118;19.962;2023-05-02T03:46:03;98508.81;;;5.53;100.00
73171;BME280;61381;50.118;19.962;2023-05-02T03:51:05;98513.91;;;5.60;100.00
73171;BME280;61381;50.118;19.962;2023-05-02T03:56:06;98521.38;;;5.90;100.00
73171;BME280;61381;50.118;19.962;2023-05-02T04:01:14;98512.56;;;6.17;100.00
73171;BME280;61381;50.118;19.962;2023-05-02T04:06:15;98521.44;;;6.70;100.00
73171;BME280;61381;50.118;19.962;2023-05-02T04:11:16;98512.59;;;7.18;100.00
73171;BME280;61381;50.118;19.962;2023-05-02T04:16:18;98517.75;;;7.45;100.00
73171;BME280;61381;50.118;19.962;2023-05-02T04:21:19;98514.06;;;7.72;100.00
73171;BME280;61381;50.118;19.962;2023-05-02T04:26:20;98527.97;;;8.56;100.00
73171;BME280;61381;50.118;19.962;2023-05-02T04:31:22;98534.09;;;9.42;100.00
73171;BME280;61381;50.118;19.962;2023-05-02T04:36:23;98526.66;;;10.13;100.00
73171;BME280;61381;50.118;19.962;2023-05-02T04:41:25;98525.13;;;11.57;100.00
73171;BME280;61381;50.118;19.962;2023-05-02T04:46:27;98548.16;;;13.51;91.87
73171;BME280;61381;50.118;19.962;2023-05-02T04:51:28;98543.06;;;13.49;92.66
73171;BME280;61381;50.118;19.962;2023-05-02T04:56:29;98562.78;;;17.13;74.64
73171;BME280;61381;50.118;19.962;2023-05-02T05:01:31;98571.88;;;17.17;71.13
73171;BME280;61381;50.118;19.962;2023-05-02T05:06:33;98570.28;;;17.46;64.20
73171;BME280;61381;50.118;19.962;2023-05-02T05:11:34;98563.97;;;17.84;58.45
73171;BME280;61381;50.118;19.962;2023-05-02T05:16:36;98564.50;;;19.23;50.02
73171;BME280;61381;50.118;19.962;2023-05-02T05:21:37;98586.50;;;21.29;43.34
73171;BME280;61381;50.118;19.962;2023-05-02T05:26:38;98593.88;;;22.35;40.55
73171;BME280;61381;50.118;19.962;2023-05-02T05:31:41;98588.72;;;22.72;38.21
73171;BME280;61381;50.118;19.962;2023-05-02T05:36:42;98598.78;;;23.64;35.48
73171;BME280;61381;50.118;19.962;2023-05-02T05:41:43;98599.16;;;22.67;35.39
73171;BME280;61381;50.118;19.962;2023-05-02T05:46:45;98595.09;;;22.80;34.99
73171;BME280;61381;50.118;19.962;2023-05-02T05:51:46;98599.38;;;23.50;33.33
73171;BME280;61381;50.118;19.962;2023-05-02T05:56:47;98602.72;;;24.24;32.87
73171;BME280;61381;50.118;19.962;2023-05-02T06:01:50;98599.78;;;24.06;31.88
73171;BME280;61381;50.118;19.962;2023-05-02T06:06:50;98610.75;;;24.74;29.87
73171;BME280;61381;50.118;19.962;2023-05-02T06:11:51;98609.50;;;24.68;31.71
73171;BME280;61381;50.118;19.962;2023-05-02T06:16:54;98608.47;;;21.87;37.13
73171;BME280;61381;50.118;19.962;2023-05-02T06:21:55;98609.94;;;22.20;35.77
73171;BME280;61381;50.118;19.962;2023-05-02T06:26:56;98624.63;;;23.40;32.46
73171;BME280;61381;50.118;19.962;2023-05-02T06:31:59;98619.25;;;25.06;30.39
73171;BME280;61381;50.118;19.962;2023-05-02T06:37:00;98624.22;;;24.56;30.50
73171;BME280;61381;50.118;19.962;2023-05-02T06:42:02;98632.41;;;25.31;29.48
73171;BME280;61381;50.118;19.962;2023-05-02T06:47:04;98630.66;;;25.60;29.95
73171;BME280;61381;50.118;19.962;2023-05-02T06:52:05;98628.22;;;25.44;29.95
73171;BME280;61381;50.118;19.962;2023-05-02T06:57:06;98621.81;;;23.37;32.81
73171;BME280;61381;50.118;19.962;2023-05-02T07:02:09;98640.41;;;24.68;31.26
73171;BME280;61381;50.118;19.962;2023-05-02T07:07:10;98638.13;;;25.15;30.07
73171;BME280;61381;50.118;19.962;2023-05-02T07:12:11;98641.75;;;25.75;29.46
73171;BME280;61381;50.118;19.962;2023-05-02T07:17:13;98633.41;;;24.37;32.24
73171;BME280;61381;50.118;19.962;2023-05-02T07:22:14;98639.97;;;25.45;30.71
73171;BME280;61381;50.118;19.962;2023-05-02T07:27:15;98642.13;;;25.25;31.24
73171;BME280;61381;50.118;19.962;2023-05-02T07:32:18;98626.16;;;23.64;34.92
73171;BME280;61381;50.118;19.962;2023-05-02T07:37:20;98627.38;;;21.96;37.42
73171;BME280;61381;50.118;19.962;2023-05-02T07:42:21;98616.63;;;21.04;38.75
73171;BME280;61381;50.118;19.962;2023-05-02T07:47:23;98613.28;;;20.95;39.99
73171;BME280;61381;50.118;19.962;2023-05-02T07:52:25;98619.72;;;20.58;40.99
73171;BME280;61381;50.118;19.962;2023-05-02T07:57:26;98623.44;;;21.10;41.32
73171;BME280;61381;50.118;19.962;2023-05-02T08:02:28;98622.53;;;20.62;41.25
73171;BME280;61381;50.118;19.962;2023-05-02T08:07:30;98620.84;;;20.85;41.96
73171;BME280;61381;50.118;19.962;2023-05-02T08:12:31;98629.19;;;20.93;41.15
73171;BME280;61381;50.118;19.962;2023-05-02T08:17:34;98637.34;;;22.08;38.33
73171;BME280;61381;50.118;19.962;2023-05-02T08:22:35;98646.03;;;23.35;36.54
73171;BME280;61381;50.118;19.962;2023-05-02T08:27:36;98650.72;;;22.91;36.79
73171;BME280;61381;50.118;19.962;2023-05-02T08:32:38;98653.44;;;22.68;37.25
73171;BME280;61381;50.118;19.962;2023-05-02T08:37:39;98652.56;;;22.64;38.78
73171;BME280;61381;50.118;19.962;2023-05-02T08:42:41;98648.56;;;23.47;36.13
73171;BME280;61381;50.118;19.962;2023-05-02T08:47:45;98638.09;;;23.53;37.94
73171;BME280;61381;50.118;19.962;2023-05-02T08:52:48;98647.78;;;23.46;37.19
73171;BME280;61381;50.118;19.962;2023-05-02T08:57:50;98644.59;;;22.55;39.04
73171;BME280;61381;50.118;19.962;2023-05-02T09:03:05;98643.44;;;22.37;40.31
73171;BME280;61381;50.118;19.962;2023-05-02T09:08:06;98640.81;;;22.05;41.89
73171;BME280;61381;50.118;19.962;2023-05-02T09:13:27;98639.75;;;21.74;43.64
73171;BME280;61381;50.118;19.962;2023-05-02T09:18:31;98632.75;;;21.57;42.96
73171;BME280;61381;50.118;19.962;2023-05-02T09:23:36;98645.56;;;21.09;44.08
73171;BME280;61381;50.118;19.962;2023-05-02T09:28:39;98648.38;;;21.28;44.72
73171;BME280;61381;50.118;19.962;2023-05-02T09:33:42;98649.22;;;20.56;45.60
73171;BME280;61381;50.118;19.962;2023-05-02T09:38:44;98652.78;;;20.44;46.95
73171;BME280;61381;50.118;19.962;2023-05-02T09:43:54;98643.72;;;20.00;47.12
73171;BME280;61381;50.118;19.962;2023-05-02T09:48:57;98649.16;;;20.00;47.86
73171;BME280;61381;50.118;19.962;2023-05-02T09:53:58;98644.19;;;20.02;47.46
73171;BME280;61381;50.118;19.962;2023-05-02T09:59:11;98655.22;;;21.06;45.84
73171;BME280;61381;50.118;19.962;2023-05-02T10:04:14;98650.22;;;21.56;45.69
73171;BME280;61381;50.118;19.962;2023-05-02T10:09:18;98645.91;;;21.39;45.75
73171;BME280;61381;50.118;19.962;2023-05-02T10:14:21;98653.50;;;21.97;44.09
73171;BME280;61381;50.118;19.962;2023-05-02T10:19:29;98640.66;;;22.33;43.65
73171;BME280;61381;50.118;19.962;2023-05-02T10:24:31;98644.56;;;22.75;43.19
73171;BME280;61381;50.118;19.962;2023-05-02T10:29:32;98644.59;;;22.98;42.62
73171;BME280;61381;50.118;19.962;2023-05-02T10:34:36;98656.19;;;23.61;41.88
73171;BME280;61381;50.118;19.962;2023-05-02T10:39:38;98653.22;;;23.96;38.87
73171;BME280;61381;50.118;19.962;2023-05-02T10:44:40;98657.50;;;23.94;37.62
73171;BME280;61381;50.118;19.962;2023-05-02T10:49:50;98655.88;;;23.89;38.45
73171;BME280;61381;50.118;19.962;2023-05-02T10:54:51;98643.34;;;24.18;39.85
73171;BME280;61381;50.118;19.962;2023-05-02T10:59:52;98644.69;;;24.01;39.37
73171;BME280;61381;50.118;19.962;2023-05-02T11:05:02;98648.09;;;23.95;37.84
73171;BME280;61381;50.118;19.962;2023-05-02T11:10:23;98646.63;;;23.24;39.24
73171;BME280;61381;50.118;19.962;2023-05-02T11:15:53;98632.28;;;23.54;38.51
73171;BME280;61381;50.118;19.962;2023-05-02T11:21:23;98635.31;;;24.02;38.51
73171;BME280;61381;50.118;19.962;2023-05-02T11:26:25;98635.78;;;24.08;38.34
73171;BME280;61381;50.118;19.962;2023-05-02T11:37:11;98636.34;;;23.67;37.04
73171;BME280;61381;50.118;19.962;2023-05-02T11:42:27;98641.59;;;23.26;38.20
73171;BME280;61381;50.118;19.962;2023-05-02T11:47:28;98637.66;;;23.50;37.14
73171;BME280;61381;50.118;19.962;2023-05-02T11:52:37;98637.50;;;23.90;36.01
73171;BME280;61381;50.118;19.962;2023-05-02T11:57:39;98635.88;;;24.46;36.62
73171;BME280;61381;50.118;19.962;2023-05-02T12:02:43;98645.84;;;24.00;36.58
73171;BME280;61381;50.118;19.962;2023-05-02T12:07:46;98631.50;;;23.30;37.93
73171;BME280;61381;50.118;19.962;2023-05-02T12:12:47;98636.69;;;23.36;37.61
73171;BME280;61381;50.118;19.962;2023-05-02T12:17:48;98635.63;;;23.21;37.76
73171;BME280;61381;50.118;19.962;2023-05-02T12:22:50;98628.41;;;24.12;37.52
73171;BME280;61381;50.118;19.962;2023-05-02T12:27:58;98629.94;;;23.83;37.63
73171;BME280;61381;50.118;19.962;2023-05-02T12:33:00;98635.47;;;23.10;38.37
73171;BME280;61381;50.118;19.962;2023-05-02T12:38:11;98645.16;;;22.65;38.81
73171;BME280;61381;50.118;19.962;2023-05-02T12:43:12;98630.59;;;22.02;40.64
73171;BME280;61381;50.118;19.962;2023-05-02T12:48:18;98639.47;;;22.73;39.58
73171;BME280;61381;50.118;19.962;2023-05-02T12:53:39;98643.44;;;22.37;39.89
73171;BME280;61381;50.118;19.962;2023-05-02T12:58:42;98649.41;;;22.42;39.69
73171;BME280;61381;50.118;19.962;2023-05-02T13:03:43;98656.22;;;22.52;38.78
73171;BME280;61381;50.118;19.962;2023-05-02T13:08:46;98641.09;;;22.00;39.96
73171;BME280;61381;50.118;19.962;2023-05-02T13:13:47;98650.84;;;21.33;44.24
73171;BME280;61381;50.118;19.962;2023-05-02T13:18:48;98635.47;;;21.09;47.23
73171;BME280;61381;50.118;19.962;2023-05-02T13:23:50;98640.00;;;20.89;47.93
73171;BME280;61381;50.118;19.962;2023-05-02T13:28:51;98649.34;;;21.20;48.22
73171;BME280;61381;50.118;19.962;2023-05-02T13:33:52;98666.47;;;21.05;50.33
73171;BME280;61381;50.118;19.962;2023-05-02T13:38:55;98678.56;;;20.75;54.12
73171;BME280;61381;50.118;19.962;2023-05-02T13:43:56;98676.78;;;19.40;78.22
73171;BME280;61381;50.118;19.962;2023-05-02T13:48:57;98676.06;;;16.67;100.00
73171;BME280;61381;50.118;19.962;2023-05-02T13:54:00;98721.44;;;15.46;100.00
73171;BME280;61381;50.118;19.962;2023-05-02T13:59:01;98733.47;;;14.50;100.00
73171;BME280;61381;50.118;19.962;2023-05-02T14:04:02;98758.59;;;13.81;100.00
73171;BME280;61381;50.118;19.962;2023-05-02T14:09:04;98769.47;;;13.62;100.00
73171;BME280;61381;50.118;19.962;2023-05-02T14:14:05;98761.91;;;13.31;100.00
73171;BME280;61381;50.118;19.962;2023-05-02T14:19:06;98748.28;;;13.08;100.00
73171;BME280;61381;50.118;19.962;2023-05-02T14:24:09;98751.44;;;12.96;100.00
73171;BME280;61381;50.118;19.962;2023-05-02T14:29:10;98756.47;;;12.84;100.00
73171;BME280;61381;50.118;19.962;2023-05-02T14:34:11;98753.63;;;12.75;100.00
73171;BME280;61381;50.118;19.962;2023-05-02T14:39:13;98763.31;;;12.76;100.00
73171;BME280;61381;50.118;19.962;2023-05-02T14:44:14;98765.13;;;12.62;100.00
73171;BME280;61381;50.118;19.962;2023-05-02T14:49:15;98758.72;;;12.77;100.00
73171;BME280;61381;50.118;19.962;2023-05-02T14:54:18;98722.19;;;12.76;100.00
73171;BME280;61381;50.118;19.962;2023-05-02T14:59:19;98683.56;;;12.53;100.00
73171;BME280;61381;50.118;19.962;2023-05-02T15:04:20;98664.53;;;12.49;100.00
73171;BME280;61381;50.118;19.962;2023-05-02T15:09:22;98636.63;;;12.45;100.00
73171;BME280;61381;50.118;19.962;2023-05-02T15:14:23;98623.19;;;12.45;100.00
73171;BME280;61381;50.118;19.962;2023-05-02T15:19:24;98655.16;;;12.46;100.00
73171;BME280;61381;50.118;19.962;2023-05-02T15:24:27;98668.72;;;12.74;100.00
73171;BME280;61381;50.118;19.962;2023-05-02T15:29:28;98688.03;;;12.76;100.00
73171;BME280;61381;50.118;19.962;2023-05-02T15:34:29;98696.81;;;12.82;100.00
73171;BME280;61381;50.118;19.962;2023-05-02T15:39:31;98709.91;;;12.70;100.00
73171;BME280;61381;50.118;19.962;2023-05-02T15:44:33;98727.41;;;12.67;100.00
73171;BME280;61381;50.118;19.962;2023-05-02T15:49:34;98737.28;;;12.72;100.00
73171;BME280;61381;50.118;19.962;2023-05-02T15:54:37;98758.94;;;12.80;100.00
73171;BME280;61381;50.118;19.962;2023-05-02T15:59:38;98773.38;;;13.03;100.00
73171;BME280;61381;50.118;19.962;2023-05-02T16:04:39;98791.97;;;13.00;100.00
73171;BME280;61381;50.118;19.962;2023-05-02T16:09:41;98787.31;;;13.06;100.00
73171;BME280;61381;50.118;19.962;2023-05-02T16:14:42;98790.19;;;13.28;100.00
73171;BME280;61381;50.118;19.962;2023-05-02T16:19:43;98790.22;;;13.09;100.00
73171;BME280;61381;50.118;19.962;2023-05-02T16:24:45;98787.75;;;12.94;100.00
73171;BME280;61381;50.118;19.962;2023-05-02T16:29:46;98797.50;;;13.09;100.00
73171;BME280;61381;50.118;19.962;2023-05-02T16:34:47;98810.84;;;13.14;100.00
73171;BME280;61381;50.118;19.962;2023-05-02T16:39:50;98818.75;;;12.91;100.00
73171;BME280;61381;50.118;19.962;2023-05-02T16:44:51;98833.84;;;12.87;100.00
73171;BME280;61381;50.118;19.962;2023-05-02T16:49:52;98854.41;;;12.97;100.00
73171;BME280;61381;50.118;19.962;2023-05-02T16:54:55;98871.38;;;12.97;100.00
73171;BME280;61381;50.118;19.962;2023-05-02T16:59:56;98881.75;;;12.85;100.00
73171;BME280;61381;50.118;19.962;2023-05-02T17:04:57;98898.00;;;12.75;100.00
73171;BME280;61381;50.118;19.962;2023-05-02T17:09:59;98913.69;;;12.67;100.00
73171;BME280;61381;50.118;19.962;2023-05-02T17:15:00;98900.09;;;12.59;100.00
73171;BME280;61381;50.118;19.962;2023-05-02T17:20:01;98903.50;;;12.64;100.00
73171;BME280;61381;50.118;19.962;2023-05-02T17:25:04;98920.75;;;12.63;100.00
73171;BME280;61381;50.118;19.962;2023-05-02T17:30:06;98911.63;;;12.59;100.00
73171;BME280;61381;50.118;19.962;2023-05-02T17:35:08;98912.28;;;12.51;100.00
73171;BME280;61381;50.118;19.962;2023-05-02T17:40:11;98924.41;;;12.48;100.00
73171;BME280;61381;50.118;19.962;2023-05-02T17:45:12;98938.72;;;12.39;100.00
73171;BME280;61381;50.118;19.962;2023-05-02T17:50:13;98939.28;;;12.36;100.00
73171;BME280;61381;50.118;19.962;2023-05-02T17:55:16;98954.28;;;12.42;100.00
73171;BME280;61381;50.118;19.962;2023-05-02T18:00:17;98960.97;;;12.44;100.00
73171;BME280;61381;50.118;19.962;2023-05-02T18:05:18;98969.50;;;12.52;100.00
73171;BME280;61381;50.118;19.962;2023-05-02T18:10:21;98976.72;;;12.56;100.00
73171;BME280;61381;50.118;19.962;2023-05-02T18:15:22;98967.59;;;12.52;100.00
73171;BME280;61381;50.118;19.962;2023-05-02T18:20:23;98969.31;;;12.43;100.00
73171;BME280;61381;50.118;19.962;2023-05-02T18:25:25;98964.00;;;12.38;100.00
73171;BME280;61381;50.118;19.962;2023-05-02T18:30:26;98954.63;;;12.35;100.00
73171;BME280;61381;50.118;19.962;2023-05-02T18:35:27;98959.72;;;12.37;100.00
73171;BME280;61381;50.118;19.962;2023-05-02T18:40:29;98953.88;;;12.29;100.00
73171;BME280;61381;50.118;19.962;2023-05-02T18:45:31;98950.38;;;12.29;100.00
73171;BME280;61381;50.118;19.962;2023-05-02T18:50:32;98948.47;;;12.35;100.00
73171;BME280;61381;50.118;19.962;2023-05-02T18:55:34;98944.03;;;12.20;100.00
73171;BME280;61381;50.118;19.962;2023-05-02T19:00:35;98906.09;;;11.97;100.00
73171;BME280;61381;50.118;19.962;2023-05-02T19:05:37;98902.41;;;11.88;100.00
73171;BME280;61381;50.118;19.962;2023-05-02T19:10:40;98894.25;;;11.69;100.00
73171;BME280;61381;50.118;19.962;2023-05-02T19:15:41;98909.88;;;11.62;100.00
73171;BME280;61381;50.118;19.962;2023-05-02T19:20:42;98922.44;;;11.66;100.00
73171;BME280;61381;50.118;19.962;2023-05-02T19:25:44;98927.59;;;11.57;100.00
73171;BME280;61381;50.118;19.962;2023-05-02T19:30:45;98932.16;;;11.57;100.00
73171;BME280;61381;50.118;19.962;2023-05-02T19:35:46;98945.88;;;11.55;100.00
73171;BME280;61381;50.118;19.962;2023-05-02T19:40:49;98939.28;;;11.37;100.00
73171;BME280;61381;50.118;19.962;2023-05-02T19:45:50;98958.81;;;11.43;100.00
73171;BME280;61381;50.118;19.962;2023-05-02T19:50:51;98968.78;;;11.37;100.00
73171;BME280;61381;50.118;19.962;2023-05-02T19:55:53;98974.97;;;11.33;100.00
73171;BME280;61381;50.118;19.962;2023-05-02T20:00:54;98982.00;;;11.29;100.00
73171;BME280;61381;50.118;19.962;2023-05-02T20:05:55;98988.38;;;11.38;100.00
73171;BME280;61381;50.118;19.962;2023-05-02T20:10:58;98983.66;;;11.14;100.00
73171;BME280;61381;50.118;19.962;2023-05-02T20:15:59;98983.91;;;11.18;100.00
73171;BME280;61381;50.118;19.962;2023-05-02T20:21:00;98989.56;;;11.11;100.00
73171;BME280;61381;50.118;19.962;2023-05-02T20:26:02;98995.72;;;11.12;100.00
73171;BME280;61381;50.118;19.962;2023-05-02T20:31:04;98997.09;;;11.09;100.00
73171;BME280;61381;50.118;19.962;2023-05-02T20:36:05;98996.31;;;11.03;100.00
73171;BME280;61381;50.118;19.962;2023-05-02T20:41:07;98997.38;;;11.02;100.00
73171;BME280;61381;50.118;19.962;2023-05-02T20:46:08;98998.75;;;11.00;100.00
73171;BME280;61381;50.118;19.962;2023-05-02T20:51:09;99011.06;;;10.96;100.00
73171;BME280;61381;50.118;19.962;2023-05-02T20:56:11;99010.56;;;10.94;100.00
73171;BME280;61381;50.118;19.962;2023-05-02T21:01:12;99022.06;;;10.94;100.00
73171;BME280;61381;50.118;19.962;2023-05-02T21:06:13;99032.00;;;10.94;100.00
73171;BME280;61381;50.118;19.962;2023-05-02T21:11:16;99033.91;;;10.78;100.00
73171;BME280;61381;50.118;19.962;2023-05-02T21:16:17;99035.78;;;10.82;100.00
73171;BME280;61381;50.118;19.962;2023-05-02T21:21:19;99034.69;;;10.88;100.00
73171;BME280;61381;50.118;19.962;2023-05-02T21:26:21;99041.94;;;10.88;100.00
73171;BME280;61381;50.118;19.962;2023-05-02T21:31:22;99040.59;;;10.85;100.00
73171;BME280;61381;50.118;19.962;2023-05-02T21:36:23;99046.81;;;10.70;100.00
73171;BME280;61381;50.118;19.962;2023-05-02T21:41:25;99058.28;;;10.76;100.00
73171;BME280;61381;50.118;19.962;2023-05-02T21:46:26;99062.88;;;10.70;100.00
73171;BME280;61381;50.118;19.962;2023-05-02T21:51:27;99060.72;;;10.78;100.00
73171;BME280;61381;50.118;19.962;2023-05-02T21:56:30;99048.69;;;10.75;100.00
73171;BME280;61381;50.118;19.962;2023-05-02T22:01:30;99054.56;;;10.72;100.00
73171;BME280;61381;50.118;19.962;2023-05-02T22:06:31;99060.47;;;10.74;100.00
73171;BME280;61381;50.118;19.962;2023-05-02T22:11:34;99061.28;;;10.69;100.00
73171;BME280;61381;50.118;19.962;2023-05-02T22:16:35;99062.63;;;10.72;100.00
73171;BME280;61381;50.118;19.962;2023-05-02T22:21:36;99072.50;;;10.71;100.00
73171;BME280;61381;50.118;19.962;2023-05-02T22:26:39;99068.22;;;10.65;100.00
73171;BME280;61381;50.118;19.962;2023-05-02T22:31:40;99078.97;;;10.70;100.00
73171;BME280;61381;50.118;19.962;2023-05-02T22:36:41;99083.78;;;10.53;100.00
73171;BME280;61381;50.118;19.962;2023-05-02T22:41:44;99095.56;;;10.52;100.00
73171;BME280;61381;50.118;19.962;2023-05-02T22:46:45;99095.84;;;10.66;100.00
73171;BME280;61381;50.118;19.962;2023-05-02T22:51:46;99107.66;;;10.60;100.00
73171;BME280;61381;50.118;19.962;2023-05-02T22:56:48;99114.34;;;10.57;100.00
73171;BME280;61381;50.118;19.962;2023-05-02T23:01:49;99111.41;;;10.53;100.00
73171;BME280;61381;50.118;19.962;2023-05-02T23:06:50;99108.44;;;10.50;100.00
73171;BME280;61381;50.118;19.962;2023-05-02T23:11:53;99107.63;;;10.55;100.00
73171;BME280;61381;50.118;19.962;2023-05-02T23:16:54;99108.16;;;10.51;100.00
73171;BME280;61381;50.118;19.962;2023-05-02T23:21:56;99102.28;;;10.55;100.00
73171;BME280;61381;50.118;19.962;2023-05-02T23:26:58;99106.81;;;10.49;100.00
73171;BME280;61381;50.118;19.962;2023-05-02T23:31:59;99103.59;;;10.52;100.00
73171;BME280;61381;50.118;19.962;2023-05-02T23:37:01;99115.69;;;10.49;100.00
73171;BME280;61381;50.118;19.962;2023-05-02T23:42:03;99106.81;;;10.49;100.00
73171;BME280;61381;50.118;19.962;2023-05-02T23:47:04;99111.91;;;10.50;100.00
73171;BME280;61381;50.118;19.962;2023-05-02T23:52:05;99110.56;;;10.53;100.00
73171;BME280;61381;50.118;19.962;2023-05-02T23:57:08;99114.59;;;10.50;100.00
